createdAt,value
2023-03-27T00:01:21.757Z,37.37
2023-03-27T00:03:51.887Z,37.17
2023-03-27T00:06:25.384Z,37.57
2023-03-27T00:08:55.896Z,35.53
2023-03-27T00:11:25.510Z,35.97
2023-03-27T00:13:55.009Z,37.67
2023-03-27T00:16:27.096Z,38.70
2023-03-27T00:18:56.575Z,34.73
2023-03-27T00:21:26.350Z,33.80
2023-03-27T00:23:59.721Z,33.60
2023-03-27T00:26:30.707Z,31.47
2023-03-27T00:28:59.371Z,33.37
2023-03-27T00:31:31.220Z,32.70
2023-03-27T00:34:01.690Z,32.07
2023-03-27T00:36:35.871Z,31.07
2023-03-27T00:39:06.896Z,31.13
2023-03-27T00:41:35.553Z,31.17
2023-03-27T00:44:21.757Z,31.60
2023-03-27T00:46:51.315Z,32.50
2023-03-27T00:49:20.119Z,30.00
2023-03-27T00:51:49.586Z,32.70
2023-03-27T00:54:26.731Z,33.17
2023-03-27T00:56:56.990Z,33.03
2023-03-27T00:59:29.341Z,31.33
2023-03-27T01:02:00.322Z,30.90
2023-03-27T01:04:29.237Z,31.77
2023-03-27T01:07:04.161Z,33.23
2023-03-27T01:09:35.596Z,30.90
2023-03-27T01:12:35.112Z,31.17
2023-03-27T01:19:06.346Z,31.43
2023-03-27T01:22:22.399Z,29.07
2023-03-27T01:25:19.899Z,32.00
2023-03-27T01:28:17.068Z,32.73
2023-03-27T01:30:53.181Z,31.83
2023-03-27T01:34:03.219Z,32.90
2023-03-27T01:37:01.001Z,34.87
2023-03-27T01:39:46.169Z,31.70
2023-03-27T01:42:20.595Z,34.07
2023-03-27T01:44:53.747Z,29.37
2023-03-27T01:47:36.979Z,30.73
2023-03-27T01:50:12.704Z,31.87
2023-03-27T01:52:44.438Z,33.43
2023-03-27T01:55:20.321Z,31.10
2023-03-27T01:57:53.152Z,32.23
2023-03-27T02:00:25.036Z,33.00
2023-03-27T02:02:58.198Z,31.40
2023-03-27T02:05:34.362Z,29.83
2023-03-27T02:08:09.106Z,29.90
2023-03-27T02:10:43.697Z,33.53
2023-03-27T02:13:18.552Z,33.43
2023-03-27T02:15:49.252Z,31.47
2023-03-27T02:18:23.899Z,33.60
2023-03-27T02:20:52.926Z,33.13
2023-03-27T02:23:23.385Z,36.90
2023-03-27T02:25:55.979Z,35.37
2023-03-27T02:28:43.900Z,36.47
2023-03-27T02:31:33.919Z,35.00
2023-03-27T02:34:34.151Z,32.80
2023-03-27T02:37:09.729Z,33.53
2023-03-27T02:39:49.136Z,33.07
2023-03-27T02:42:23.796Z,34.03
2023-03-27T02:44:57.938Z,34.50
2023-03-27T02:47:38.928Z,35.67
2023-03-27T02:50:12.340Z,25.05
2023-03-27T02:52:44.851Z,35.43
2023-03-27T02:55:19.255Z,31.93
2023-03-27T02:57:54.809Z,35.27
2023-03-27T03:00:25.961Z,34.23
2023-03-27T03:03:00.606Z,33.37
2023-03-27T03:05:29.792Z,36.10
2023-03-27T03:07:58.471Z,35.10
2023-03-27T03:10:28.560Z,39.23
2023-03-27T03:12:58.745Z,40.50
2023-03-27T03:15:27.407Z,39.00
2023-03-27T03:17:56.092Z,40.93
2023-03-27T03:20:24.963Z,40.20
2023-03-27T03:22:53.697Z,38.07
2023-03-27T03:25:22.224Z,40.40
2023-03-27T03:27:50.900Z,43.17
2023-03-27T03:30:21.031Z,120.37
2023-03-27T03:32:49.805Z,57.43
2023-03-27T03:35:18.526Z,56.43
2023-03-27T03:37:51.204Z,49.77
2023-03-27T03:40:20.969Z,44.47
2023-03-27T03:42:51.723Z,39.13
2023-03-27T03:45:22.159Z,38.73
2023-03-27T03:47:50.815Z,40.90
2023-03-27T03:50:19.534Z,44.23
2023-03-27T03:52:48.187Z,41.67
2023-03-27T03:55:17.265Z,41.63
2023-03-27T03:57:48.593Z,41.27
2023-03-27T04:00:18.993Z,43.47
2023-03-27T04:02:53.507Z,40.10
2023-03-27T04:05:23.015Z,40.57
2023-03-27T04:07:51.713Z,41.80
2023-03-27T04:10:20.575Z,39.53
2023-03-27T04:12:49.588Z,43.73
2023-03-27T04:15:18.744Z,41.13
2023-03-27T04:17:49.916Z,41.83
2023-03-27T04:20:19.128Z,38.83
2023-03-27T04:22:52.522Z,41.17
2023-03-27T04:25:25.012Z,40.80
2023-03-27T04:27:53.815Z,41.60
2023-03-27T04:30:24.179Z,37.10
2023-03-27T04:32:55.005Z,39.77
2023-03-27T04:35:23.722Z,38.67
2023-03-27T04:37:53.078Z,41.20
2023-03-27T04:40:22.198Z,43.60
2023-03-27T04:42:50.770Z,48.03
2023-03-27T04:45:22.890Z,48.63
2023-03-27T04:47:51.976Z,48.30
2023-03-27T04:50:25.809Z,55.97
2023-03-27T04:52:58.968Z,49.63
2023-03-27T04:55:28.006Z,47.70
2023-03-27T04:58:00.586Z,44.17
2023-03-27T05:00:31.272Z,40.60
2023-03-27T05:03:01.495Z,40.30
2023-03-27T05:05:31.747Z,36.08
2023-03-27T05:08:00.385Z,44.83
2023-03-27T05:10:29.096Z,34.13
2023-03-27T05:12:58.458Z,34.17
2023-03-27T05:15:27.982Z,32.43
2023-03-27T05:17:56.664Z,32.97
2023-03-27T05:20:26.263Z,31.83
2023-03-27T05:22:57.322Z,32.47
2023-03-27T05:25:26.667Z,34.27
2023-03-27T05:27:55.566Z,31.97
2023-03-27T05:30:26.475Z,33.00
2023-03-27T05:32:59.708Z,32.20
2023-03-27T05:35:29.285Z,28.63
2023-03-27T05:37:59.328Z,29.77
2023-03-27T05:40:28.787Z,28.30
2023-03-27T05:42:58.345Z,30.43
2023-03-27T05:45:26.931Z,31.10
2023-03-27T05:47:57.496Z,29.33
2023-03-27T05:50:28.679Z,30.23
2023-03-27T05:52:59.407Z,27.43
2023-03-27T05:55:28.519Z,30.63
2023-03-27T05:57:57.360Z,36.13
2023-03-27T06:00:27.580Z,38.83
2023-03-27T06:02:57.976Z,36.07
2023-03-27T06:05:30.123Z,41.23
2023-03-27T06:08:00.526Z,37.70
2023-03-27T06:10:31.162Z,38.70
2023-03-27T06:13:05.264Z,39.43
2023-03-27T06:15:34.305Z,33.10
2023-03-27T06:18:03.058Z,37.30
2023-03-27T06:20:31.875Z,30.53
2023-03-27T06:23:02.254Z,35.37
2023-03-27T06:25:33.653Z,39.77
2023-03-27T06:28:04.757Z,48.57
2023-03-27T06:30:33.558Z,34.07
2023-03-27T06:33:03.207Z,31.17
2023-03-27T06:35:33.377Z,38.03
2023-03-27T06:38:04.136Z,32.23
2023-03-27T06:40:35.489Z,26.80
2023-03-27T06:43:06.513Z,27.67
2023-03-27T06:45:38.260Z,27.60
2023-03-27T06:48:13.381Z,30.50
2023-03-27T06:50:46.662Z,31.43
2023-03-27T06:55:49.624Z,36.67
2023-03-27T06:58:19.543Z,45.67
2023-03-27T07:00:50.520Z,37.77
2023-03-27T07:03:20.350Z,41.50
2023-03-27T07:05:49.770Z,40.93
2023-03-27T07:08:24.804Z,34.87
2023-03-27T07:13:26.146Z,43.03
2023-03-27T07:15:55.100Z,41.80
2023-03-27T07:18:24.134Z,43.37
2023-03-27T07:20:52.791Z,36.67
2023-03-27T07:23:28.469Z,41.13
2023-03-27T07:25:59.955Z,34.33
2023-03-27T07:28:29.519Z,38.13
2023-03-27T07:30:59.779Z,35.10
2023-03-27T07:33:28.979Z,30.97
2023-03-27T07:35:58.012Z,30.47
2023-03-27T07:38:28.849Z,27.77
2023-03-27T07:40:57.805Z,24.40
2023-03-27T07:43:28.003Z,30.10
2023-03-27T07:45:58.587Z,34.37
2023-03-27T07:48:28.306Z,34.03
2023-03-27T07:51:10.914Z,31.40
2023-03-27T07:53:45.066Z,25.17
2023-03-27T07:56:14.158Z,36.87
2023-03-27T07:58:43.009Z,33.23
2023-03-27T08:01:12.193Z,32.33
2023-03-27T08:03:42.114Z,42.23
2023-03-27T08:06:11.902Z,36.13
2023-03-27T08:08:42.710Z,16.75
2023-03-27T08:11:27.455Z,49.77
2023-03-27T08:14:02.412Z,44.13
2023-03-27T08:16:32.031Z,17.88
2023-03-27T08:19:03.708Z,27.83
2023-03-27T08:21:33.663Z,39.53
2023-03-27T08:24:04.993Z,62.57
2023-03-27T08:26:36.585Z,63.90
2023-03-27T08:29:05.764Z,49.10
2023-03-27T08:31:35.653Z,42.87
2023-03-27T08:34:08.935Z,45.30
2023-03-27T08:36:39.245Z,49.00
2023-03-27T08:39:08.557Z,53.33
2023-03-27T08:41:45.544Z,60.13
2023-03-27T08:44:17.642Z,56.20
2023-03-27T08:46:51.414Z,40.77
2023-03-27T08:49:24.268Z,49.33
2023-03-27T08:51:58.838Z,24.67
2023-03-27T08:54:31.894Z,26.13
2023-03-27T08:57:12.723Z,24.20
2023-03-27T08:59:43.878Z,22.43
2023-03-27T09:02:21.295Z,28.90
2023-03-27T09:04:54.868Z,27.50
2023-03-27T09:07:29.988Z,20.67
2023-03-27T09:10:04.972Z,28.33
2023-03-27T09:12:48.710Z,26.27
2023-03-27T09:15:22.623Z,22.17
2023-03-27T09:17:56.664Z,20.10
2023-03-27T09:20:30.112Z,22.63
2023-03-27T09:23:06.072Z,19.23
2023-03-27T09:25:39.807Z,23.63
2023-03-27T09:28:19.657Z,19.17
2023-03-27T09:30:49.066Z,27.30
2023-03-27T09:33:18.195Z,39.80
2023-03-27T09:35:49.317Z,35.37
2023-03-27T09:38:31.808Z,43.73
2023-03-27T09:41:04.328Z,52.27
2023-03-27T09:43:41.934Z,42.20
2023-03-27T09:46:11.802Z,19.00
2023-03-27T09:48:47.339Z,37.00
2023-03-27T09:51:41.449Z,21.10
2023-03-27T09:54:15.043Z,31.17
2023-03-27T09:56:46.939Z,30.13
2023-03-27T09:59:30.046Z,32.90
2023-03-27T10:02:00.714Z,31.80
2023-03-27T10:04:32.956Z,34.20
2023-03-27T10:07:05.692Z,31.33
2023-03-27T10:09:36.024Z,31.30
2023-03-27T10:12:12.737Z,44.40
2023-03-27T10:14:51.795Z,32.33
2023-03-27T10:17:26.773Z,36.30
2023-03-27T10:20:02.327Z,49.27
2023-03-27T10:22:34.445Z,33.47
2023-03-27T10:25:07.096Z,38.33
2023-03-27T10:27:40.817Z,31.13
2023-03-27T10:30:29.779Z,34.07
2023-03-27T10:32:58.593Z,49.60
2023-03-27T10:35:30.916Z,34.50
2023-03-27T10:37:59.660Z,33.73
2023-03-27T10:40:31.672Z,46.43
2023-03-27T10:43:06.586Z,47.47
2023-03-27T10:45:47.172Z,35.83
2023-03-27T10:48:32.092Z,50.03
2023-03-27T10:51:05.736Z,40.73
2023-03-27T10:53:43.950Z,47.53
2023-03-27T10:56:19.878Z,58.73
2023-03-27T10:58:52.504Z,38.63
2023-03-27T11:01:29.271Z,30.27
2023-03-27T11:04:04.486Z,31.63
2023-03-27T11:06:41.941Z,28.17
2023-03-27T11:09:17.544Z,26.20
2023-03-27T11:11:51.017Z,27.13
2023-03-27T11:14:22.524Z,30.63
2023-03-27T11:16:57.587Z,29.40
2023-03-27T11:19:40.817Z,59.10
2023-03-27T11:22:14.383Z,41.93
2023-03-27T11:24:50.838Z,37.83
2023-03-27T11:27:27.005Z,49.13
2023-03-27T11:30:19.019Z,32.50
2023-03-27T11:32:58.630Z,30.37
2023-03-27T11:35:35.176Z,46.47
2023-03-27T11:38:09.375Z,29.97
2023-03-27T11:40:42.378Z,30.60
2023-03-27T11:43:12.744Z,25.37
2023-03-27T11:45:48.799Z,27.90
2023-03-27T11:48:52.437Z,29.07
2023-03-27T11:51:33.783Z,33.07
2023-03-27T11:54:13.523Z,42.43
2023-03-27T11:56:54.752Z,20.73
2023-03-27T11:59:46.768Z,48.97
2023-03-27T12:02:33.269Z,19.90
2023-03-27T12:05:07.140Z,22.03
2023-03-27T12:07:48.118Z,18.50
2023-03-27T12:10:32.294Z,35.63
2023-03-27T12:14:00.938Z,38.43
2023-03-27T12:16:46.882Z,62.20
2023-03-27T12:19:42.445Z,36.50
2023-03-27T12:22:24.609Z,39.00
2023-03-27T12:25:06.570Z,25.50
2023-03-27T12:28:01.973Z,22.37
2023-03-27T12:30:41.011Z,21.42
2023-03-27T12:33:41.524Z,22.83
2023-03-27T12:36:17.431Z,25.08
2023-03-27T12:38:48.172Z,30.10
2023-03-27T12:41:25.757Z,20.93
2023-03-27T12:44:00.822Z,10.17
2023-03-27T12:46:35.464Z,10.03
2023-03-27T12:49:48.131Z,4.63
2023-03-27T12:52:18.950Z,6.43
2023-03-27T12:55:11.740Z,9.40
2023-03-27T12:57:46.229Z,18.57
2023-03-27T13:00:22.417Z,11.17
2023-03-27T13:03:29.357Z,8.37
2023-03-27T13:06:27.444Z,16.73
2023-03-27T13:09:10.957Z,40.10
2023-03-27T13:11:52.454Z,38.60
2023-03-27T13:14:53.831Z,21.07
2023-03-27T13:17:53.817Z,64.47
2023-03-27T13:20:32.613Z,25.90
2023-03-27T13:23:13.960Z,34.27
2023-03-27T13:26:00.197Z,33.80
2023-03-27T13:28:36.820Z,3.33
2023-03-27T13:31:09.822Z,7.20
2023-03-27T13:33:45.885Z,8.93
2023-03-27T13:36:20.079Z,12.27
2023-03-27T13:39:21.367Z,12.67
2023-03-27T13:42:06.653Z,40.03
2023-03-27T13:45:08.196Z,24.47
2023-03-27T13:48:13.131Z,3.78
2023-03-27T13:51:15.946Z,6.13
2023-03-27T13:54:24.407Z,7.50
2023-03-27T13:57:05.835Z,10.83
2023-03-27T13:59:57.427Z,3.28
2023-03-27T14:02:55.481Z,8.57
2023-03-27T14:05:55.952Z,11.37
2023-03-27T14:08:37.438Z,15.20
2023-03-27T14:11:37.700Z,5.97
2023-03-27T14:14:25.521Z,11.23
2023-03-27T14:17:26.716Z,43.13
2023-03-27T14:20:17.829Z,83.93
2023-03-27T14:22:54.653Z,78.70
2023-03-27T14:25:32.789Z,60.10
2023-03-27T14:28:02.689Z,68.03
2023-03-27T14:30:35.028Z,85.33
2023-03-27T14:33:10.412Z,73.27
2023-03-27T14:35:44.553Z,90.13
2023-03-27T14:38:23.978Z,79.57
2023-03-27T14:40:57.655Z,83.37
2023-03-27T14:43:29.943Z,97.10
2023-03-27T14:46:02.554Z,60.90
2023-03-27T14:48:37.939Z,70.73
2023-03-27T14:51:13.753Z,73.57
2023-03-27T14:53:45.473Z,65.37
2023-03-27T14:56:30.307Z,97.03
2023-03-27T14:59:02.351Z,49.10
2023-03-27T15:01:32.238Z,52.27
2023-03-27T15:04:04.104Z,48.00
2023-03-27T15:06:36.867Z,50.97
2023-03-27T15:09:13.595Z,35.67
2023-03-27T15:11:44.553Z,27.87
2023-03-27T15:14:18.699Z,40.63
2023-03-27T15:16:53.024Z,42.43
2023-03-27T15:19:26.273Z,38.50
2023-03-27T15:22:01.600Z,28.23
2023-03-27T15:24:38.144Z,32.97
2023-03-27T15:27:07.204Z,35.30
2023-03-27T15:29:40.995Z,34.40
2023-03-27T15:32:12.365Z,26.07
2023-03-27T15:34:47.995Z,42.90
2023-03-27T15:37:20.353Z,31.17
2023-03-27T15:40:09.284Z,35.57
2023-03-27T15:42:48.450Z,24.03
2023-03-27T15:45:22.128Z,28.03
2023-03-27T15:48:01.897Z,31.30
2023-03-27T15:50:31.893Z,23.30
2023-03-27T15:53:03.395Z,35.63
2023-03-27T15:55:47.441Z,25.13
2023-03-27T15:58:25.441Z,29.43
2023-03-27T16:00:59.366Z,36.30
2023-03-27T16:03:31.434Z,29.00
2023-03-27T16:06:03.016Z,33.83
2023-03-27T16:08:35.918Z,24.87
2023-03-27T16:11:06.482Z,20.53
2023-03-27T16:13:37.405Z,25.37
2023-03-27T16:16:19.726Z,21.20
2023-03-27T16:18:51.808Z,24.60
2023-03-27T16:21:27.147Z,24.73
2023-03-27T16:23:58.259Z,24.13
2023-03-27T16:26:31.878Z,27.20
2023-03-27T16:29:04.753Z,23.20
2023-03-27T16:31:33.738Z,33.90
2023-03-27T16:34:02.577Z,33.77
2023-03-27T16:36:34.095Z,28.93
2023-03-27T16:39:04.465Z,37.10
2023-03-27T16:41:33.288Z,38.80
2023-03-27T16:44:02.117Z,50.93
2023-03-27T16:46:33.930Z,58.60
2023-03-27T16:49:02.517Z,52.43
2023-03-27T16:51:35.974Z,53.00
2023-03-27T16:54:04.615Z,39.43
2023-03-27T16:56:35.379Z,46.70
2023-03-27T16:59:04.905Z,39.10
2023-03-27T17:01:33.663Z,34.27
2023-03-27T17:04:02.319Z,22.23
2023-03-27T17:06:32.321Z,20.33
2023-03-27T17:09:03.876Z,19.67
2023-03-27T17:11:32.789Z,16.87
2023-03-27T17:14:01.534Z,18.30
2023-03-27T17:16:30.649Z,22.17
2023-03-27T17:19:03.220Z,23.43
2023-03-27T17:21:33.347Z,17.03
2023-03-27T17:24:02.316Z,17.93
2023-03-27T17:26:33.446Z,18.87
2023-03-27T17:29:03.532Z,20.80
2023-03-27T17:31:32.288Z,19.27
2023-03-27T17:34:01.326Z,22.20
2023-03-27T17:36:41.115Z,20.33
2023-03-27T17:39:13.514Z,18.03
2023-03-27T17:41:42.182Z,25.93
2023-03-27T17:44:12.491Z,31.03
2023-03-27T17:46:41.420Z,21.23
2023-03-27T17:49:10.684Z,19.03
2023-03-27T17:51:42.976Z,22.60
2023-03-27T17:54:16.436Z,21.50
2023-03-27T17:56:45.539Z,24.87
2023-03-27T17:59:14.293Z,24.53
2023-03-27T18:01:43.782Z,23.27
2023-03-27T18:04:13.029Z,24.83
2023-03-27T18:06:43.776Z,22.57
2023-03-27T18:09:14.510Z,33.83
2023-03-27T18:11:43.355Z,20.87
2023-03-27T18:14:12.220Z,24.40
2023-03-27T18:16:41.074Z,26.80
2023-03-27T18:19:10.179Z,16.73
2023-03-27T18:21:39.049Z,18.80
2023-03-27T18:24:08.314Z,16.30
2023-03-27T18:26:38.758Z,15.77
2023-03-27T18:29:07.559Z,18.33
2023-03-27T18:31:37.607Z,17.43
2023-03-27T18:34:09.152Z,20.17
2023-03-27T18:36:38.404Z,18.63
2023-03-27T18:39:07.874Z,15.25
2023-03-27T18:41:40.063Z,87.27
2023-03-27T18:44:08.725Z,16.00
2023-03-27T18:46:37.662Z,16.47
2023-03-27T18:49:21.623Z,13.60
2023-03-27T18:51:52.863Z,16.77
2023-03-27T18:54:23.776Z,19.63
2023-03-27T18:56:54.172Z,17.80
2023-03-27T18:59:23.699Z,16.10
2023-03-27T19:01:52.659Z,12.70
2023-03-27T19:04:21.328Z,12.20
2023-03-27T19:06:49.972Z,16.13
2023-03-27T19:09:19.949Z,13.83
2023-03-27T19:11:51.763Z,15.67
2023-03-27T19:14:24.687Z,14.60
2023-03-27T19:16:55.092Z,17.60
2023-03-27T19:19:24.164Z,19.93
2023-03-27T19:21:52.978Z,15.83
2023-03-27T19:24:24.068Z,16.30
2023-03-27T19:26:53.723Z,13.13
2023-03-27T19:29:24.195Z,16.77
2023-03-27T19:31:53.807Z,11.93
2023-03-27T19:34:32.759Z,14.30
2023-03-27T19:37:14.753Z,17.00
2023-03-27T19:39:43.481Z,9.23
2023-03-27T19:42:12.744Z,13.77
2023-03-27T19:44:45.502Z,11.93
2023-03-27T19:47:14.412Z,10.90
2023-03-27T19:49:43.096Z,10.73
2023-03-27T19:52:17.101Z,15.03
2023-03-27T19:54:46.174Z,16.37
2023-03-27T19:57:15.739Z,12.40
2023-03-27T19:59:59.262Z,12.37
2023-03-27T20:02:30.243Z,12.13
2023-03-27T20:04:59.457Z,11.23
2023-03-27T20:07:28.308Z,12.03
2023-03-27T20:09:57.442Z,14.93
2023-03-27T20:12:26.607Z,12.77
2023-03-27T20:15:07.617Z,11.53
2023-03-27T20:17:43.208Z,10.97
2023-03-27T20:20:16.210Z,10.60
2023-03-27T20:22:57.144Z,11.27
2023-03-27T20:25:33.892Z,9.70
2023-03-27T20:28:14.193Z,8.03
2023-03-27T20:30:45.307Z,7.27
2023-03-27T20:33:14.239Z,9.27
2023-03-27T20:35:43.709Z,10.13
2023-03-27T20:38:13.567Z,9.07
2023-03-27T20:40:53.330Z,10.43
2023-03-27T20:43:23.154Z,7.97
2023-03-27T20:45:55.131Z,7.97
2023-03-27T20:48:32.843Z,9.50
2023-03-27T20:51:14.943Z,10.20
2023-03-27T20:53:44.957Z,8.47
2023-03-27T20:56:15.758Z,8.70
2023-03-27T20:58:47.419Z,15.63
2023-03-27T21:01:19.879Z,9.27
2023-03-27T21:03:50.470Z,9.93
2023-03-27T21:06:23.342Z,11.37
2023-03-27T21:08:55.143Z,11.33
2023-03-27T21:11:24.142Z,8.17
2023-03-27T21:13:55.384Z,7.87
2023-03-27T21:16:26.478Z,8.07
2023-03-27T21:18:56.631Z,7.83
2023-03-27T21:21:33.775Z,11.20
2023-03-27T21:24:03.816Z,9.73
2023-03-27T21:26:35.665Z,7.33
2023-03-27T21:29:07.137Z,8.97
2023-03-27T21:31:37.819Z,8.57
2023-03-27T21:34:09.233Z,8.73
2023-03-27T21:36:39.466Z,6.10
2023-03-27T21:39:09.447Z,8.37
2023-03-27T21:41:41.540Z,9.27
2023-03-27T21:44:16.485Z,9.20
2023-03-27T21:46:48.729Z,10.50
2023-03-27T21:49:18.043Z,12.37
2023-03-27T21:51:56.910Z,12.37
2023-03-27T21:54:26.204Z,12.63
2023-03-27T21:56:56.803Z,12.50
2023-03-27T21:59:27.587Z,13.40
2023-03-27T22:01:59.185Z,16.73
2023-03-27T22:04:28.813Z,15.17
2023-03-27T22:06:58.511Z,21.55
2023-03-27T22:09:31.113Z,15.43
2023-03-27T22:12:02.467Z,18.23
2023-03-27T22:14:31.837Z,17.07
2023-03-27T22:17:02.637Z,15.50
2023-03-27T22:19:34.564Z,13.90
2023-03-27T22:22:05.807Z,15.00
2023-03-27T22:24:37.407Z,12.73
2023-03-27T22:27:07.091Z,13.47
2023-03-27T22:29:37.299Z,13.50
2023-03-27T22:32:09.619Z,13.27
2023-03-27T22:34:39.836Z,13.83
2023-03-27T22:37:08.643Z,12.53
2023-03-27T22:39:38.345Z,12.07
2023-03-27T22:42:07.722Z,11.50
2023-03-27T22:44:37.320Z,14.17
2023-03-27T22:47:12.870Z,13.67
2023-03-27T22:49:41.711Z,13.37
2023-03-27T22:52:12.856Z,14.27
2023-03-27T22:54:41.838Z,10.67
2023-03-27T22:57:11.159Z,11.00
2023-03-27T22:59:40.235Z,11.80
2023-03-27T23:02:10.802Z,11.97
2023-03-27T23:04:39.535Z,12.03
2023-03-27T23:07:08.663Z,10.37
2023-03-27T23:09:38.054Z,11.63
2023-03-27T23:12:07.388Z,13.03
2023-03-27T23:14:37.049Z,12.20
2023-03-27T23:17:06.758Z,15.23
2023-03-27T23:19:38.160Z,18.43
2023-03-27T23:22:10.528Z,19.17
2023-03-27T23:24:39.972Z,22.27
2023-03-27T23:27:11.211Z,24.43
2023-03-27T23:29:40.006Z,26.03
2023-03-27T23:32:09.554Z,21.80
2023-03-27T23:34:39.785Z,22.63
2023-03-27T23:37:12.549Z,24.80
2023-03-27T23:39:42.417Z,24.93
2023-03-27T23:42:11.226Z,26.43
2023-03-27T23:44:39.988Z,29.93
2023-03-27T23:47:51.936Z,34.50
2023-03-27T23:50:23.636Z,24.70
2023-03-27T23:52:54.236Z,26.30
2023-03-27T23:55:22.992Z,32.93
2023-03-27T23:57:51.730Z,33.67
